»·PEaware :: DCM5 KSFO-KPDX

DCM5 :: KSFO-KPDX

FLIGHT INFORMATION

Flight Status: Arrived
Operator: Unknown
More flights by this operator :: More flights under this callsign
Pilot: Taylor M. (19061)
Aircraft: AIRBUS A320
(A320)
More flights by this aircraft type
Origin: KSFO San Francisco Intl
United States
Destination: KPDX Portland Intl
United States
More flights between these airports :: More routes between these airports
Route: TRUKN2 GRTFL MACHU TMBRS2
File this flight plan on PilotEdge
Remarks: PBN / A1B1C1D1O1S1 NAV / RNP2 DOF / 180913 REG / N320SB EET / KZSE0032 OPR / DCM RMK / TCAS
Altitude:
(Current/Filed)
34,000ft
Speed:
(Current/Filed)
436kts
Departed: 12-Sep-18 06:16 PM
Arrived: 12-Sep-18 07:35 PM
Distance/Time
Traveled:
478nm/1:19
Distance/Time
To Go:
Arrived

Flight Plot

Page will automatically refresh every two minutes.


Map Options




Map Legend


Flown Route
Filed Route
Departure Airport
Arrival Airport
Navaid (VOR, NDB)
Fix

Horizontal Profiles

Position Reports

Time Latitude Longitude Heading Altitude Ground
Speed
12-Sep-18 18:02 37.614711 -122.381659 299 32ft 0kts
12-Sep-18 18:03 37.614711 -122.381659 299 32ft 0kts
12-Sep-18 18:04 37.614711 -122.381659 299 32ft 0kts
12-Sep-18 18:05 37.614711 -122.381659 299 32ft 0kts
12-Sep-18 18:06 37.614711 -122.381659 299 32ft 0kts
12-Sep-18 18:07 37.614711 -122.381659 299 32ft 0kts
12-Sep-18 18:08 37.614711 -122.381659 299 32ft 0kts
12-Sep-18 18:09 37.614711 -122.381659 299 32ft 0kts
12-Sep-18 18:10 37.614711 -122.381659 299 32ft 0kts
12-Sep-18 18:11 37.614711 -122.381659 299 32ft 0kts
12-Sep-18 18:12 37.614711 -122.381659 299 32ft 0kts
12-Sep-18 18:13 37.614588 -122.381145 193 32ft 0kts
12-Sep-18 18:14 37.613591 -122.381563 207 32ft 10kts
12-Sep-18 18:15 37.610669 -122.383555 209 32ft 2kts
12-Sep-18 18:16 37.609734 -122.384132 163 32ft 4kts
12-Sep-18 18:17 37.609053 -122.383717 139 32ft 1kts
12-Sep-18 18:18 37.620094 -122.374776 25 65ft 168kts
12-Sep-18 18:19 37.657280 -122.326246 52 3145ft 226kts
12-Sep-18 18:20 37.697532 -122.253182 55 5803ft 289kts
12-Sep-18 18:21 37.764156 -122.215061 355 9063ft 296kts
12-Sep-18 18:22 37.850423 -122.217927 355 11487ft 345kts
12-Sep-18 18:23 37.939738 -122.220385 353 14168ft 359kts
12-Sep-18 18:24 38.042029 -122.223174 351 16544ft 381kts
12-Sep-18 18:25 38.131167 -122.225565 349 18328ft 399kts
12-Sep-18 18:26 38.243401 -122.228559 349 20443ft 412kts
12-Sep-18 18:27 38.349941 -122.231555 347 22237ft 422kts
12-Sep-18 18:28 38.458043 -122.242475 345 23821ft 431kts
12-Sep-18 18:29 38.576710 -122.254790 345 25492ft 439kts
12-Sep-18 18:30 38.699883 -122.267647 344 27007ft 448kts
12-Sep-18 18:31 38.824597 -122.280711 344 28295ft 459kts
12-Sep-18 18:32 38.952328 -122.294123 344 29556ft 467kts
12-Sep-18 18:33 39.082171 -122.307812 344 30738ft 473kts
12-Sep-18 18:34 39.198030 -122.320052 343 32112ft 467kts
12-Sep-18 18:35 39.325470 -122.333609 343 33269ft 467kts
12-Sep-18 18:36 39.451904 -122.347067 343 33916ft 462kts
12-Sep-18 18:37 39.579503 -122.360738 343 33924ft 464kts
12-Sep-18 18:38 39.708075 -122.374534 343 33924ft 464kts
12-Sep-18 18:39 39.836189 -122.388346 343 33904ft 464kts
12-Sep-18 18:40 39.963390 -122.402103 343 33913ft 465kts
12-Sep-18 18:41 40.092594 -122.416133 343 33922ft 466kts
12-Sep-18 18:42 40.211038 -122.429045 343 33917ft 465kts
12-Sep-18 18:43 40.339876 -122.443143 343 33902ft 465kts
12-Sep-18 18:44 40.467427 -122.457146 343 33880ft 466kts
12-Sep-18 18:45 40.596067 -122.471324 343 33891ft 467kts
12-Sep-18 18:46 40.724643 -122.485547 343 33897ft 467kts
12-Sep-18 18:47 40.852427 -122.499742 345 34040ft 467kts
12-Sep-18 18:48 40.981442 -122.514121 345 34048ft 466kts
12-Sep-18 18:49 41.102059 -122.527624 345 34034ft 466kts
12-Sep-18 18:50 41.224610 -122.541391 345 34021ft 464kts
12-Sep-18 18:51 41.352978 -122.555866 346 34030ft 463kts
12-Sep-18 18:52 41.481122 -122.570377 346 34028ft 462kts
12-Sep-18 18:53 41.609262 -122.580806 348 33972ft 465kts
12-Sep-18 18:54 41.738163 -122.589212 348 33984ft 465kts
12-Sep-18 18:55 41.866283 -122.597586 350 34011ft 464kts
12-Sep-18 18:56 41.994472 -122.606006 350 33993ft 462kts
12-Sep-18 18:57 42.112585 -122.613784 350 33976ft 461kts
12-Sep-18 18:58 42.239611 -122.622217 350 33969ft 461kts
12-Sep-18 18:59 42.367372 -122.630745 350 33983ft 460kts
12-Sep-18 19:00 42.494635 -122.639271 350 33986ft 460kts
12-Sep-18 19:01 42.621346 -122.647795 350 33987ft 461kts
12-Sep-18 19:02 42.744984 -122.656148 349 34001ft 461kts
12-Sep-18 19:03 42.872743 -122.664814 350 34004ft 462kts
12-Sep-18 19:04 43.000570 -122.673520 350 34058ft 462kts
12-Sep-18 19:05 43.119679 -122.681670 350 34046ft 462kts
12-Sep-18 19:06 43.247419 -122.690444 350 34036ft 461kts
12-Sep-18 19:07 43.373863 -122.699165 351 34037ft 461kts
12-Sep-18 19:08 43.500064 -122.707869 351 34036ft 461kts
12-Sep-18 19:09 43.624272 -122.716457 351 34037ft 461kts
12-Sep-18 19:10 43.745813 -122.724872 350 33747ft 449kts
12-Sep-18 19:11 43.867097 -122.733368 351 32549ft 434kts
12-Sep-18 19:12 43.983124 -122.741481 351 30702ft 426kts
12-Sep-18 19:13 44.099777 -122.749675 351 28795ft 418kts
12-Sep-18 19:14 44.202575 -122.747933 0 27076ft 414kts
12-Sep-18 19:15 44.314189 -122.736981 1 25188ft 404kts
12-Sep-18 19:16 44.422183 -122.726339 2 23332ft 394kts
12-Sep-18 19:17 44.528951 -122.715760 1 21485ft 383kts
12-Sep-18 19:18 44.630502 -122.705632 1 19688ft 372kts
12-Sep-18 19:19 44.730711 -122.695560 1 17925ft 360kts
12-Sep-18 19:20 44.828732 -122.685686 1 16195ft 349kts
12-Sep-18 19:21 44.923431 -122.676151 1 14523ft 338kts
12-Sep-18 19:22 45.013721 -122.667029 1 13210ft 319kts
12-Sep-18 19:23 45.091390 -122.659132 1 11846ft 312kts
12-Sep-18 19:24 45.162456 -122.651885 1 10588ft 305kts
12-Sep-18 19:25 45.245763 -122.644205 351 9093ft 296kts
12-Sep-18 19:26 45.320164 -122.681705 335 7791ft 280kts
12-Sep-18 19:27 45.390064 -122.720079 336 6530ft 272kts
12-Sep-18 19:28 45.457253 -122.756998 336 5432ft 259kts
12-Sep-18 19:29 45.520051 -122.791616 337 4769ft 235kts
12-Sep-18 19:30 45.574788 -122.832478 315 3728ft 228kts
12-Sep-18 19:31 45.624487 -122.873279 23 3020ft 210kts
12-Sep-18 19:32 45.667740 -122.834697 75 3007ft 170kts
12-Sep-18 19:33 45.656251 -122.778036 120 2496ft 131kts
12-Sep-18 19:34 45.639426 -122.734888 121 1801ft 130kts
12-Sep-18 19:35 45.622033 -122.690354 119 1122ft 129kts
12-Sep-18 19:36 45.605271 -122.645792 118 441ft 128kts
12-Sep-18 19:37 45.590029 -122.608114 121 26ft 23kts
12-Sep-18 19:38 45.590111 -122.603751 43 26ft 22kts

Navigation Log

Ident Type
Flight plan parsing failed, navigation log unavailable